createdAt,value
2018-11-03T00:00:18.617Z,15.08
2018-11-03T00:01:23.447Z,10.80
2018-11-03T00:02:31.808Z,12.68
2018-11-03T00:03:36.770Z,11.15
2018-11-03T00:04:41.763Z,11.95
2018-11-03T00:05:46.805Z,12.78
2018-11-03T00:06:52.143Z,10.60
2018-11-03T00:07:57.874Z,12.63
2018-11-03T00:09:03.106Z,11.78
2018-11-03T00:10:09.423Z,10.98
2018-11-03T00:11:14.334Z,12.65
2018-11-03T00:12:19.374Z,10.80
2018-11-03T00:13:24.190Z,10.70
2018-11-03T00:14:29.023Z,11.10
2018-11-03T00:15:33.930Z,11.05
2018-11-03T00:16:38.898Z,11.95
2018-11-03T00:17:43.761Z,10.65
2018-11-03T00:18:49.996Z,11.25
2018-11-03T00:19:54.831Z,11.25
2018-11-03T00:21:02.526Z,10.93
2018-11-03T00:22:07.223Z,10.68
2018-11-03T00:23:14.855Z,12.25
2018-11-03T00:24:20.200Z,11.50
2018-11-03T00:25:24.736Z,11.70
2018-11-03T00:26:29.441Z,10.05
2018-11-03T00:27:38.463Z,11.40
2018-11-03T00:28:45.381Z,9.25
2018-11-03T00:29:49.964Z,9.45
2018-11-03T00:30:55.398Z,9.60
2018-11-03T00:32:00.782Z,12.73
2018-11-03T00:33:06.086Z,11.97
2018-11-03T00:34:10.674Z,11.48
2018-11-03T00:35:15.689Z,12.33
2018-11-03T00:36:21.263Z,11.30
2018-11-03T00:37:25.847Z,11.50
2018-11-03T00:38:30.557Z,10.25
2018-11-03T00:39:35.819Z,11.28
2018-11-03T00:40:40.411Z,12.65
2018-11-03T00:41:44.992Z,11.15
2018-11-03T00:43:04.488Z,11.35
2018-11-03T00:44:09.850Z,10.95
2018-11-03T00:45:14.774Z,9.30
2018-11-03T00:46:19.746Z,10.35
2018-11-03T00:47:24.348Z,11.05
2018-11-03T00:48:28.974Z,9.25
2018-11-03T00:49:35.681Z,11.88
2018-11-03T00:50:40.975Z,11.90
2018-11-03T00:51:45.804Z,10.95
2018-11-03T00:52:50.804Z,11.30
2018-11-03T00:53:55.447Z,10.72
2018-11-03T00:55:00.210Z,9.63
2018-11-03T00:56:05.506Z,10.38
2018-11-03T00:57:11.592Z,9.43
2018-11-03T00:58:16.247Z,10.72
2018-11-03T00:59:20.802Z,10.53
2018-11-03T01:00:26.177Z,11.30
2018-11-03T01:01:31.543Z,10.58
2018-11-03T01:02:36.887Z,10.32
2018-11-03T01:03:41.548Z,11.80
2018-11-03T01:04:46.166Z,11.60
2018-11-03T01:05:51.273Z,11.88
2018-11-03T01:06:55.935Z,13.13
2018-11-03T01:08:01.011Z,13.35
2018-11-03T01:09:07.477Z,11.95
2018-11-03T01:10:14.787Z,12.63
2018-11-03T01:11:20.809Z,12.15
2018-11-03T01:12:32.305Z,11.65
2018-11-03T01:13:38.213Z,12.50
2018-11-03T01:14:43.373Z,13.43
2018-11-03T01:15:47.942Z,14.58
2018-11-03T01:16:52.525Z,14.95
2018-11-03T01:17:59.890Z,16.50
2018-11-03T01:19:04.757Z,13.30
2018-11-03T01:20:11.559Z,18.15
2018-11-03T01:21:16.255Z,11.83
2018-11-03T01:22:20.786Z,14.65
2018-11-03T01:23:25.671Z,15.43
2018-11-03T01:24:30.287Z,12.68
2018-11-03T01:25:34.871Z,13.68
2018-11-03T01:26:39.727Z,11.90
2018-11-03T01:27:44.348Z,12.93
2018-11-03T01:28:49.335Z,12.73
2018-11-03T01:29:53.883Z,12.25
2018-11-03T01:30:58.467Z,11.90
2018-11-03T01:32:03.496Z,10.93
2018-11-03T01:33:08.026Z,9.70
2018-11-03T01:34:12.581Z,11.48
2018-11-03T01:35:18.139Z,10.30
2018-11-03T01:36:22.702Z,10.50
2018-11-03T01:37:27.481Z,12.00
2018-11-03T01:38:32.170Z,11.28
2018-11-03T01:39:36.727Z,11.03
2018-11-03T01:40:41.509Z,12.30
2018-11-03T01:41:47.130Z,11.90
2018-11-03T01:42:51.712Z,10.78
2018-11-03T01:43:59.566Z,9.15
2018-11-03T01:45:05.447Z,9.68
2018-11-03T01:46:10.706Z,10.35
2018-11-03T01:47:16.177Z,9.90
2018-11-03T01:48:20.732Z,9.93
2018-11-03T01:49:25.278Z,8.73
2018-11-03T01:50:29.885Z,8.93
2018-11-03T01:51:34.399Z,8.98
2018-11-03T01:52:39.905Z,8.90
2018-11-03T01:53:44.516Z,9.83
2018-11-03T01:54:50.291Z,11.08
2018-11-03T01:55:54.926Z,11.25
2018-11-03T01:56:59.687Z,10.55
2018-11-03T01:58:10.653Z,11.12
2018-11-03T01:59:15.522Z,12.20
2018-11-03T02:00:20.386Z,12.70
2018-11-03T02:01:24.917Z,12.37
2018-11-03T02:02:29.598Z,18.52
2018-11-03T02:03:34.336Z,19.10
2018-11-03T02:04:39.140Z,15.90
2018-11-03T02:05:43.658Z,16.77
2018-11-03T02:06:48.777Z,15.72
2018-11-03T02:07:53.506Z,15.28
2018-11-03T02:08:58.087Z,15.93
2018-11-03T02:10:03.112Z,13.25
2018-11-03T02:11:07.710Z,14.13
2018-11-03T02:12:13.007Z,14.43
2018-11-03T02:13:17.634Z,16.35
2018-11-03T02:14:22.592Z,12.93
2018-11-03T02:15:27.193Z,12.13
2018-11-03T02:16:31.821Z,12.23
2018-11-03T02:17:36.578Z,11.73
2018-11-03T02:18:41.259Z,11.15
2018-11-03T02:19:45.928Z,12.68
2018-11-03T02:20:50.656Z,13.68
2018-11-03T02:21:55.467Z,11.90
2018-11-03T02:23:00.079Z,11.63
2018-11-03T02:24:05.946Z,14.38
2018-11-03T02:25:10.924Z,11.57
2018-11-03T02:26:15.456Z,11.83
2018-11-03T02:27:19.982Z,10.75
2018-11-03T02:28:24.588Z,12.05
2018-11-03T02:29:29.149Z,10.35
2018-11-03T02:30:33.807Z,9.73
2018-11-03T02:31:38.375Z,10.28
2018-11-03T02:32:42.981Z,10.30
2018-11-03T02:33:47.745Z,11.18
2018-11-03T02:34:52.727Z,10.85
2018-11-03T02:35:57.299Z,12.90
2018-11-03T02:37:01.922Z,11.88
2018-11-03T02:38:06.598Z,10.45
2018-11-03T02:39:11.267Z,9.75
2018-11-03T02:40:15.866Z,12.53
2018-11-03T02:41:20.414Z,11.65
2018-11-03T02:42:24.956Z,13.70
2018-11-03T02:43:29.952Z,13.55
2018-11-03T02:44:34.487Z,12.50
2018-11-03T02:45:39.102Z,12.78
2018-11-03T02:46:43.622Z,11.60
2018-11-03T02:47:48.139Z,10.93
2018-11-03T02:48:52.716Z,11.10
2018-11-03T02:49:57.266Z,12.55
2018-11-03T02:51:01.907Z,12.13
2018-11-03T02:52:06.547Z,13.40
2018-11-03T02:53:11.400Z,13.45
2018-11-03T02:54:16.942Z,12.63
2018-11-03T02:55:21.557Z,12.37
2018-11-03T02:56:26.570Z,9.50
2018-11-03T02:57:31.113Z,9.88
2018-11-03T02:58:35.692Z,9.13
2018-11-03T02:59:40.240Z,9.88
2018-11-03T03:00:44.866Z,9.15
2018-11-03T03:01:49.438Z,9.80
2018-11-03T03:02:53.986Z,10.95
2018-11-03T03:03:58.573Z,9.58
2018-11-03T03:05:03.769Z,10.08
2018-11-03T03:06:08.338Z,10.13
2018-11-03T03:07:12.943Z,11.28
2018-11-03T03:08:17.521Z,10.10
2018-11-03T03:09:23.282Z,10.23
2018-11-03T03:10:28.362Z,10.93
2018-11-03T03:11:33.250Z,9.78
2018-11-03T03:12:38.573Z,11.60
2018-11-03T03:13:43.231Z,10.88
2018-11-03T03:14:48.013Z,10.45
2018-11-03T03:15:52.941Z,11.12
2018-11-03T03:16:57.494Z,12.23
2018-11-03T03:18:02.265Z,10.98
2018-11-03T03:19:42.751Z,8.50
2018-11-03T03:20:48.298Z,9.43
2018-11-03T03:21:52.868Z,9.88
2018-11-03T03:22:57.462Z,11.60
2018-11-03T03:24:02.048Z,10.85
2018-11-03T03:25:07.745Z,11.33
2018-11-03T03:26:12.512Z,9.98
2018-11-03T03:27:17.150Z,10.68
2018-11-03T03:28:21.725Z,11.08
2018-11-03T03:29:26.404Z,11.43
2018-11-03T03:30:30.914Z,12.95
2018-11-03T03:31:35.946Z,11.05
2018-11-03T03:32:40.961Z,13.75
2018-11-03T03:33:45.932Z,15.90
2018-11-03T03:34:50.546Z,12.58
2018-11-03T03:35:55.526Z,15.95
2018-11-03T03:37:00.144Z,20.27
2018-11-03T03:38:04.712Z,14.58
2018-11-03T03:39:11.419Z,18.48
2018-11-03T03:40:16.161Z,14.35
2018-11-03T03:41:20.782Z,15.93
2018-11-03T03:42:25.417Z,11.75
2018-11-03T03:43:29.997Z,14.23
2018-11-03T03:44:34.794Z,11.75
2018-11-03T03:45:40.158Z,13.80
2018-11-03T03:46:44.791Z,11.12
2018-11-03T03:47:49.551Z,13.95
2018-11-03T03:48:54.166Z,15.75
2018-11-03T03:49:58.818Z,12.05
2018-11-03T03:51:03.485Z,15.70
2018-11-03T03:52:09.542Z,10.53
2018-11-03T03:53:14.552Z,16.50
2018-11-03T03:54:19.100Z,15.18
2018-11-03T03:55:23.772Z,13.20
2018-11-03T03:56:28.349Z,15.85
2018-11-03T03:57:33.970Z,12.93
2018-11-03T03:58:38.837Z,15.83
2018-11-03T03:59:43.538Z,16.05
2018-11-03T04:00:49.546Z,13.15
2018-11-03T04:01:54.086Z,14.43
2018-11-03T04:02:58.895Z,13.50
2018-11-03T04:04:03.515Z,12.60
2018-11-03T04:05:16.919Z,10.32
2018-11-03T04:06:21.539Z,10.72
2018-11-03T04:07:27.142Z,9.80
2018-11-03T04:08:33.334Z,9.90
2018-11-03T04:09:37.924Z,10.65
2018-11-03T04:10:42.514Z,9.35
2018-11-03T04:11:47.838Z,10.60
2018-11-03T04:12:52.621Z,10.25
2018-11-03T04:13:58.174Z,11.45
2018-11-03T04:15:03.845Z,10.40
2018-11-03T04:16:08.515Z,10.65
2018-11-03T04:17:13.163Z,10.60
2018-11-03T04:18:21.936Z,10.23
2018-11-03T04:19:28.748Z,11.18
2018-11-03T04:20:33.454Z,9.33
2018-11-03T04:21:38.675Z,9.60
2018-11-03T04:22:45.040Z,9.95
2018-11-03T04:23:50.186Z,9.25
2018-11-03T04:24:55.113Z,9.83
2018-11-03T04:25:59.702Z,9.28
2018-11-03T04:27:04.592Z,12.37
2018-11-03T04:28:10.142Z,12.50
2018-11-03T04:29:14.960Z,13.70
2018-11-03T04:30:19.566Z,11.75
2018-11-03T04:31:24.937Z,11.25
2018-11-03T04:32:29.711Z,12.75
2018-11-03T04:33:34.226Z,13.65
2018-11-03T04:34:38.795Z,11.50
2018-11-03T04:35:43.310Z,11.28
2018-11-03T04:36:51.013Z,13.35
2018-11-03T04:37:56.241Z,13.18
2018-11-03T04:39:00.874Z,16.73
2018-11-03T04:40:06.608Z,15.90
2018-11-03T04:41:13.524Z,14.68
2018-11-03T04:42:20.857Z,15.40
2018-11-03T04:43:26.227Z,15.30
2018-11-03T04:44:31.757Z,14.65
2018-11-03T04:45:36.366Z,14.35
2018-11-03T04:46:41.026Z,14.38
2018-11-03T04:47:45.994Z,16.73
2018-11-03T04:48:54.647Z,15.05
2018-11-03T04:49:59.203Z,14.40
2018-11-03T04:51:05.215Z,14.13
2018-11-03T04:52:09.848Z,12.30
2018-11-03T04:53:15.934Z,11.93
2018-11-03T04:54:20.547Z,11.48
2018-11-03T04:55:25.110Z,10.68
2018-11-03T04:56:29.703Z,11.53
2018-11-03T04:57:34.315Z,10.18
2018-11-03T04:58:38.930Z,10.68
2018-11-03T04:59:43.456Z,10.90
2018-11-03T05:00:48.058Z,11.12
2018-11-03T05:01:52.705Z,16.10
2018-11-03T05:02:57.245Z,13.95
2018-11-03T05:04:01.952Z,16.82
2018-11-03T05:05:07.703Z,13.50
2018-11-03T05:06:14.150Z,11.22
2018-11-03T05:07:19.535Z,14.00
2018-11-03T05:08:24.442Z,13.98
2018-11-03T05:09:31.974Z,17.98
2018-11-03T05:10:37.539Z,16.10
2018-11-03T05:11:43.952Z,19.60
2018-11-03T05:14:08.277Z,11.40
2018-11-03T05:15:12.951Z,10.53
2018-11-03T05:16:17.578Z,18.12
2018-11-03T05:17:22.401Z,20.52
2018-11-03T05:18:27.462Z,11.18
2018-11-03T05:19:32.508Z,12.60
2018-11-03T05:20:37.212Z,10.93
2018-11-03T05:21:41.961Z,19.12
2018-11-03T05:22:46.764Z,14.20
2018-11-03T05:23:51.462Z,17.17
2018-11-03T05:24:56.042Z,16.80
2018-11-03T05:26:02.928Z,15.63
2018-11-03T05:27:08.107Z,17.20
2018-11-03T05:28:12.704Z,16.95
2018-11-03T05:29:18.423Z,16.40
2018-11-03T05:30:23.405Z,15.40
2018-11-03T05:31:28.069Z,12.05
2018-11-03T05:32:32.702Z,16.95
2018-11-03T05:33:37.894Z,16.45
2018-11-03T05:34:42.614Z,14.45
2018-11-03T05:35:47.176Z,11.55
2018-11-03T05:36:51.711Z,13.50
2018-11-03T05:37:56.609Z,14.20
2018-11-03T05:39:01.918Z,14.68
2018-11-03T05:40:07.455Z,15.13
2018-11-03T05:41:12.297Z,15.13
2018-11-03T05:42:16.894Z,15.58
2018-11-03T05:43:22.265Z,16.48
2018-11-03T05:44:26.834Z,16.25
2018-11-03T05:45:34.267Z,14.90
2018-11-03T05:46:41.442Z,12.90
2018-11-03T05:47:46.128Z,14.35
2018-11-03T05:48:50.802Z,13.88
2018-11-03T05:49:55.382Z,14.13
2018-11-03T05:51:01.891Z,11.80
2018-11-03T05:52:06.575Z,13.32
2018-11-03T05:53:11.150Z,13.10
2018-11-03T05:54:15.790Z,13.80
2018-11-03T05:55:20.767Z,15.10
2018-11-03T05:56:25.312Z,15.32
2018-11-03T05:57:30.236Z,13.62
2018-11-03T05:58:34.845Z,14.85
2018-11-03T05:59:40.044Z,12.85
2018-11-03T06:00:45.444Z,15.60
2018-11-03T06:01:50.322Z,15.05
2018-11-03T06:02:55.282Z,15.08
2018-11-03T06:03:59.982Z,15.55
2018-11-03T06:05:04.669Z,12.53
2018-11-03T06:06:09.219Z,11.75
2018-11-03T06:07:13.751Z,13.85
2018-11-03T06:08:19.104Z,12.30
2018-11-03T06:09:29.401Z,12.65
2018-11-03T06:10:33.930Z,12.33
2018-11-03T06:11:38.608Z,12.85
2018-11-03T06:12:43.591Z,12.75
2018-11-03T06:13:49.391Z,14.87
2018-11-03T06:14:54.463Z,13.50
2018-11-03T06:15:59.970Z,15.53
2018-11-03T06:17:05.038Z,17.30
2018-11-03T06:18:09.670Z,17.50
2018-11-03T06:19:14.338Z,20.12
2018-11-03T06:20:18.945Z,16.87
2018-11-03T06:21:23.823Z,14.93
2018-11-03T06:22:29.281Z,16.37
2018-11-03T06:23:34.076Z,17.30
2018-11-03T06:24:38.624Z,16.45
2018-11-03T06:25:43.199Z,16.75
2018-11-03T06:26:48.376Z,17.37
2018-11-03T06:27:53.084Z,17.77
2018-11-03T06:30:00.744Z,17.00
2018-11-03T06:31:05.951Z,18.32
2018-11-03T06:32:10.543Z,38.08
2018-11-03T06:33:19.239Z,32.42
2018-11-03T06:34:24.341Z,22.27
2018-11-03T06:35:29.783Z,38.55
2018-11-03T06:36:34.411Z,26.82
2018-11-03T06:37:40.338Z,34.80
2018-11-03T06:38:46.376Z,49.05
2018-11-03T06:39:50.996Z,50.75
2018-11-03T06:40:55.557Z,47.10
2018-11-03T06:42:00.180Z,61.13
2018-11-03T06:43:04.911Z,46.95
2018-11-03T06:44:12.510Z,39.03
2018-11-03T06:45:17.365Z,51.95
2018-11-03T06:46:22.096Z,54.15
2018-11-03T06:47:27.454Z,65.35
2018-11-03T06:48:32.033Z,30.45
2018-11-03T06:49:37.957Z,27.95
2018-11-03T06:50:43.508Z,48.20
2018-11-03T06:51:49.926Z,35.13
2018-11-03T06:52:54.514Z,35.10
2018-11-03T06:53:59.588Z,32.58
2018-11-03T06:55:04.656Z,21.30
2018-11-03T06:56:09.345Z,21.10
2018-11-03T06:57:14.267Z,15.15
2018-11-03T06:58:18.850Z,14.03
2018-11-03T06:59:23.974Z,12.15
2018-11-03T07:00:28.714Z,12.95
2018-11-03T07:01:33.921Z,14.00
2018-11-03T07:02:38.620Z,14.55
2018-11-03T07:03:43.838Z,15.72
2018-11-03T07:04:48.709Z,13.38
2018-11-03T07:05:53.625Z,13.40
2018-11-03T07:07:00.717Z,11.90
2018-11-03T07:08:05.945Z,13.78
2018-11-03T07:09:12.470Z,13.48
2018-11-03T07:10:17.062Z,13.50
2018-11-03T07:11:21.830Z,13.95
2018-11-03T07:12:27.150Z,13.30
2018-11-03T07:13:32.935Z,12.53
2018-11-03T07:14:39.247Z,13.95
2018-11-03T07:15:44.934Z,16.57
2018-11-03T07:16:50.420Z,13.45
2018-11-03T07:17:55.365Z,14.55
2018-11-03T07:19:00.368Z,14.20
2018-11-03T07:20:05.176Z,14.93
2018-11-03T07:21:09.748Z,14.90
2018-11-03T07:22:14.357Z,16.25
2018-11-03T07:23:19.195Z,13.15
2018-11-03T07:24:23.726Z,12.82
2018-11-03T07:25:28.731Z,14.95
2018-11-03T07:26:33.460Z,15.28
2018-11-03T07:27:43.172Z,17.17
2018-11-03T07:28:49.435Z,15.70
2018-11-03T07:29:55.327Z,16.40
2018-11-03T07:31:01.794Z,15.68
2018-11-03T07:32:06.462Z,15.70
2018-11-03T07:33:12.066Z,14.63
2018-11-03T07:34:16.717Z,21.62
2018-11-03T07:35:21.347Z,20.23
2018-11-03T07:36:27.216Z,17.00
2018-11-03T07:37:38.948Z,15.28
2018-11-03T07:38:44.350Z,17.60
2018-11-03T07:39:50.326Z,13.35
2018-11-03T07:40:54.993Z,14.50
2018-11-03T07:42:00.281Z,14.30
2018-11-03T07:43:06.290Z,14.07
2018-11-03T07:44:11.261Z,15.50
2018-11-03T07:45:15.918Z,13.85
2018-11-03T07:46:21.372Z,14.65
2018-11-03T07:47:25.894Z,14.75
2018-11-03T07:48:30.831Z,14.93
2018-11-03T07:49:36.800Z,16.55
2018-11-03T07:50:41.597Z,14.40
2018-11-03T07:51:48.333Z,15.00
2018-11-03T07:52:53.232Z,15.90
2018-11-03T07:53:59.089Z,16.25
2018-11-03T07:55:03.955Z,17.30
2018-11-03T07:56:08.561Z,17.70
2018-11-03T07:57:13.458Z,17.90
2018-11-03T07:58:18.298Z,16.93
2018-11-03T07:59:22.938Z,16.50
2018-11-03T08:00:28.136Z,17.25
2018-11-03T08:01:32.765Z,17.20
2018-11-03T08:02:37.593Z,17.75
2018-11-03T08:03:42.290Z,18.02
2018-11-03T08:04:47.437Z,20.45
2018-11-03T08:05:52.525Z,17.15
2018-11-03T08:06:57.070Z,16.93
2018-11-03T08:08:01.908Z,17.40
2018-11-03T08:09:08.908Z,16.35
2018-11-03T08:10:13.579Z,18.73
2018-11-03T08:11:18.507Z,20.75
2018-11-03T08:12:24.609Z,26.10
2018-11-03T08:13:31.748Z,19.62
2018-11-03T08:14:36.385Z,18.87
2018-11-03T08:15:42.991Z,19.12
2018-11-03T08:16:48.455Z,18.67
2018-11-03T08:17:54.857Z,19.10
2018-11-03T08:19:00.034Z,17.95
2018-11-03T08:20:04.783Z,16.97
2018-11-03T08:21:10.003Z,18.52
2018-11-03T08:22:14.861Z,17.75
2018-11-03T08:23:19.606Z,16.50
2018-11-03T08:24:24.805Z,16.40
2018-11-03T08:25:30.815Z,18.27
2018-11-03T08:26:36.503Z,22.05
2018-11-03T08:27:41.846Z,21.70
2018-11-03T08:28:46.929Z,20.23
2018-11-03T08:29:51.972Z,32.42
2018-11-03T08:30:56.583Z,20.97
2018-11-03T08:32:05.970Z,21.25
2018-11-03T08:33:16.062Z,21.60
2018-11-03T08:34:21.481Z,21.25
2018-11-03T08:35:28.361Z,22.87
2018-11-03T08:36:34.514Z,19.87
2018-11-03T08:37:40.500Z,37.85
2018-11-03T08:38:53.637Z,29.75
2018-11-03T08:39:59.620Z,20.05
2018-11-03T08:41:05.274Z,20.23
2018-11-03T08:42:13.590Z,21.73
2018-11-03T08:43:20.316Z,26.60
2018-11-03T08:44:27.082Z,29.35
2018-11-03T08:45:34.092Z,32.93
2018-11-03T08:46:42.730Z,29.67
2018-11-03T08:47:47.747Z,20.35
2018-11-03T08:48:53.891Z,21.95
2018-11-03T08:50:04.362Z,30.48
2018-11-03T08:51:10.987Z,29.15
2018-11-03T08:52:19.030Z,27.58
2018-11-03T08:53:24.954Z,30.27
2018-11-03T08:54:29.967Z,24.87
2018-11-03T08:55:37.384Z,27.32
2018-11-03T08:56:42.535Z,19.62
2018-11-03T08:57:48.367Z,22.02
2018-11-03T08:58:53.829Z,19.65
2018-11-03T08:59:59.989Z,21.10
2018-11-03T09:01:05.711Z,18.57
2018-11-03T09:02:11.454Z,19.55
2018-11-03T09:03:18.341Z,20.30
2018-11-03T09:04:25.101Z,19.67
2018-11-03T09:05:31.758Z,22.32
2018-11-03T09:06:36.819Z,20.62
2018-11-03T09:07:47.256Z,20.72
2018-11-03T09:08:52.764Z,20.00
2018-11-03T09:10:01.369Z,20.85
2018-11-03T09:11:08.919Z,18.52
2018-11-03T09:12:16.356Z,21.07
2018-11-03T09:13:22.833Z,19.35
2018-11-03T09:14:28.495Z,18.70
2018-11-03T09:15:34.135Z,18.73
2018-11-03T09:16:38.851Z,19.20
2018-11-03T09:17:44.606Z,18.87
2018-11-03T09:18:49.734Z,19.00
2018-11-03T09:19:54.412Z,19.07
2018-11-03T09:20:59.243Z,19.35
2018-11-03T09:22:03.952Z,21.82
2018-11-03T09:23:08.972Z,18.10
2018-11-03T09:24:15.473Z,20.50
2018-11-03T09:25:25.578Z,21.10
2018-11-03T09:26:30.431Z,20.45
2018-11-03T09:27:37.308Z,20.15
2018-11-03T09:28:42.599Z,20.15
2018-11-03T09:29:48.239Z,20.25
2018-11-03T09:30:53.459Z,20.55
2018-11-03T09:32:00.027Z,26.15
2018-11-03T09:33:06.274Z,20.02
2018-11-03T09:34:11.290Z,18.70
2018-11-03T09:35:16.696Z,21.27
2018-11-03T09:36:21.751Z,19.77
2018-11-03T09:37:26.730Z,21.40
2018-11-03T09:38:32.527Z,20.77
2018-11-03T09:39:38.105Z,20.45
2018-11-03T09:40:43.697Z,22.07
2018-11-03T09:41:50.388Z,20.30
2018-11-03T09:42:55.068Z,21.05
2018-11-03T09:43:59.935Z,21.75
2018-11-03T09:45:05.223Z,21.20
2018-11-03T09:46:09.945Z,22.77
2018-11-03T09:47:14.784Z,23.20
2018-11-03T09:48:20.916Z,21.17
2018-11-03T09:49:25.717Z,21.87
2018-11-03T09:50:30.782Z,20.70
2018-11-03T09:51:35.385Z,25.90
2018-11-03T09:52:40.328Z,21.23
2018-11-03T09:53:44.855Z,22.22
2018-11-03T09:54:49.649Z,22.55
2018-11-03T09:55:54.921Z,26.68
2018-11-03T09:56:59.768Z,23.00
2018-11-03T09:58:05.230Z,23.83
2018-11-03T09:59:10.349Z,24.75
2018-11-03T10:00:17.753Z,22.17
2018-11-03T10:01:22.910Z,24.25
2018-11-03T10:02:27.508Z,24.50
2018-11-03T10:03:32.912Z,22.95
2018-11-03T10:04:37.592Z,22.87
2018-11-03T10:05:42.171Z,20.82
2018-11-03T10:06:46.935Z,21.25
2018-11-03T10:07:52.326Z,23.80
2018-11-03T10:08:58.447Z,26.82
2018-11-03T10:10:04.228Z,23.70
2018-11-03T10:11:08.909Z,22.50
2018-11-03T10:12:13.677Z,23.05
2018-11-03T10:13:18.601Z,21.60
2018-11-03T10:14:23.263Z,21.80
2018-11-03T10:15:28.008Z,22.77
2018-11-03T10:16:32.562Z,22.75
2018-11-03T10:17:37.190Z,21.45
2018-11-03T10:18:42.558Z,23.87
2018-11-03T10:19:47.121Z,23.75
2018-11-03T10:20:54.638Z,24.72
2018-11-03T10:22:00.173Z,23.98
2018-11-03T10:23:05.569Z,22.87
2018-11-03T10:24:10.470Z,25.62
2018-11-03T10:25:16.875Z,29.25
2018-11-03T10:26:22.276Z,26.50
2018-11-03T10:27:32.948Z,25.12
2018-11-03T10:28:40.930Z,23.90
2018-11-03T10:29:54.390Z,23.50
2018-11-03T10:31:04.631Z,22.20
2018-11-03T10:32:10.082Z,24.47
2018-11-03T10:33:17.546Z,25.45
2018-11-03T10:34:27.654Z,23.38
2018-11-03T10:35:39.401Z,23.40
2018-11-03T10:36:44.686Z,23.73
2018-11-03T10:37:54.931Z,23.47
2018-11-03T10:39:08.460Z,24.52
2018-11-03T10:40:19.488Z,23.62
2018-11-03T10:41:26.704Z,23.80
2018-11-03T10:42:33.375Z,23.60
2018-11-03T10:43:38.619Z,22.75
2018-11-03T10:44:44.943Z,24.85
2018-11-03T10:45:52.467Z,23.73
2018-11-03T10:47:00.599Z,25.68
2018-11-03T10:48:06.473Z,25.92
2018-11-03T10:49:12.019Z,23.27
2018-11-03T10:50:20.063Z,23.18
2018-11-03T10:51:25.561Z,23.50
2018-11-03T10:52:31.538Z,24.35
2018-11-03T10:53:37.452Z,23.85
2018-11-03T10:54:43.398Z,25.15
2018-11-03T10:55:48.842Z,27.65
2018-11-03T10:56:56.369Z,26.93
2018-11-03T10:58:02.187Z,27.48
2018-11-03T10:59:08.497Z,25.30
2018-11-03T11:00:21.266Z,22.30
2018-11-03T11:01:31.773Z,50.20
2018-11-03T11:02:42.511Z,92.85
2018-11-03T11:03:54.867Z,43.50
2018-11-03T11:05:04.460Z,46.60
2018-11-03T11:06:14.059Z,37.40
2018-11-03T11:07:23.821Z,50.85
2018-11-03T11:08:34.366Z,36.93
2018-11-03T11:09:44.707Z,30.20
2018-11-03T11:10:54.594Z,28.70
2018-11-03T11:12:05.138Z,47.50
2018-11-03T11:13:19.394Z,37.35
2018-11-03T11:14:25.861Z,25.57
2018-11-03T11:15:32.294Z,22.65
2018-11-03T11:16:37.103Z,21.93
2018-11-03T11:17:41.698Z,28.47
2018-11-03T11:18:47.038Z,20.88
2018-11-03T11:19:51.702Z,20.68
2018-11-03T11:20:57.278Z,21.25
2018-11-03T11:22:02.095Z,18.90
2018-11-03T11:23:07.503Z,23.45
2018-11-03T11:24:16.038Z,22.05
2018-11-03T11:25:21.611Z,32.05
2018-11-03T11:26:27.176Z,21.12
2018-11-03T11:27:33.110Z,21.40
2018-11-03T11:28:37.934Z,20.10
2018-11-03T11:29:43.050Z,19.20
2018-11-03T11:30:48.074Z,24.52
2018-11-03T11:31:52.689Z,25.35
2018-11-03T11:32:57.255Z,19.37
2018-11-03T11:34:01.997Z,18.05
2018-11-03T11:35:08.824Z,16.87
2018-11-03T11:36:14.686Z,15.50
2018-11-03T11:37:19.413Z,13.58
2018-11-03T11:38:23.921Z,17.20
2018-11-03T11:39:29.950Z,16.32
2018-11-03T11:40:35.399Z,15.25
2018-11-03T11:41:40.023Z,14.07
2018-11-03T11:42:44.846Z,12.15
2018-11-03T11:43:50.011Z,13.13
2018-11-03T11:45:01.493Z,12.50
2018-11-03T11:46:07.879Z,29.45
2018-11-03T11:47:13.468Z,18.23
2018-11-03T11:48:20.993Z,29.65
2018-11-03T11:49:29.211Z,82.05
2018-11-03T11:50:34.086Z,101.92
2018-11-03T11:51:39.302Z,23.50
2018-11-03T11:52:47.350Z,22.15
2018-11-03T11:53:52.136Z,283.23
2018-11-03T11:54:58.260Z,47.48
2018-11-03T11:56:03.011Z,96.63
2018-11-03T11:57:07.982Z,103.70
2018-11-03T11:58:12.972Z,137.57
2018-11-03T11:59:17.592Z,89.50
2018-11-03T12:00:22.424Z,159.45
2018-11-03T12:01:27.433Z,101.70
2018-11-03T12:02:32.134Z,75.22
2018-11-03T12:03:36.923Z,60.43
2018-11-03T12:04:42.995Z,87.22
2018-11-03T12:05:49.860Z,53.63
2018-11-03T12:06:57.617Z,31.25
2018-11-03T12:08:03.379Z,33.40
2018-11-03T12:09:10.469Z,19.60
2018-11-03T12:10:16.963Z,28.05
2018-11-03T12:11:27.332Z,18.23
2018-11-03T12:12:36.075Z,92.27
2018-11-03T12:13:42.971Z,50.45
2018-11-03T12:14:56.398Z,30.97
2018-11-03T12:16:01.830Z,38.53
2018-11-03T12:17:12.812Z,65.90
2018-11-03T12:18:19.179Z,25.05
2018-11-03T12:19:28.853Z,15.78
2018-11-03T12:20:36.399Z,18.65
2018-11-03T12:21:42.043Z,23.45
2018-11-03T12:22:48.049Z,105.10
2018-11-03T12:23:53.383Z,78.07
2018-11-03T12:24:58.422Z,130.20
2018-11-03T12:26:03.419Z,68.78
2018-11-03T12:27:10.399Z,55.80
2018-11-03T12:28:18.107Z,60.75
2018-11-03T12:29:24.299Z,41.58
2018-11-03T12:30:35.757Z,21.93
2018-11-03T12:31:41.980Z,56.23
2018-11-03T12:32:47.771Z,54.30
2018-11-03T12:33:52.729Z,178.50
2018-11-03T12:34:58.282Z,78.47
2018-11-03T12:36:04.034Z,126.60
2018-11-03T12:37:09.491Z,51.33
2018-11-03T12:38:16.638Z,64.05
2018-11-03T12:39:21.440Z,42.62
2018-11-03T12:40:26.754Z,17.00
2018-11-03T12:41:33.312Z,15.35
2018-11-03T12:42:38.781Z,18.82
2018-11-03T12:43:44.661Z,20.82
2018-11-03T12:44:50.771Z,19.85
2018-11-03T12:45:57.004Z,16.62
2018-11-03T12:47:04.135Z,15.20
2018-11-03T12:48:09.298Z,14.00
2018-11-03T12:49:14.970Z,27.13
2018-11-03T12:50:21.072Z,16.70
2018-11-03T12:51:27.005Z,15.70
2018-11-03T12:52:35.312Z,17.02
2018-11-03T12:53:41.436Z,25.45
2018-11-03T12:54:46.799Z,21.82
2018-11-03T12:55:51.687Z,12.88
2018-11-03T12:56:58.744Z,11.78
2018-11-03T12:58:07.183Z,12.10
2018-11-03T12:59:12.927Z,12.18
2018-11-03T13:00:18.005Z,12.28
2018-11-03T13:01:23.392Z,13.20
2018-11-03T13:02:28.650Z,14.07
2018-11-03T13:03:35.282Z,14.35
2018-11-03T13:04:41.886Z,13.08
2018-11-03T13:05:46.972Z,13.50
2018-11-03T13:06:52.011Z,11.95
2018-11-03T13:08:59.591Z,14.47
2018-11-03T13:10:06.342Z,13.95
2018-11-03T13:11:11.446Z,12.95
2018-11-03T13:12:16.984Z,11.95
2018-11-03T13:13:21.798Z,13.03
2018-11-03T13:14:26.976Z,12.93
2018-11-03T13:15:32.086Z,11.18
2018-11-03T13:16:39.100Z,10.75
2018-11-03T13:17:44.966Z,9.70
2018-11-03T13:18:49.851Z,10.43
2018-11-03T13:19:56.002Z,11.57
2018-11-03T13:21:02.075Z,16.65
2018-11-03T13:22:07.734Z,18.67
2018-11-03T13:23:12.781Z,11.80
2018-11-03T13:24:18.805Z,11.30
2018-11-03T13:25:25.477Z,10.40
2018-11-03T13:26:52.367Z,19.00
2018-11-03T13:27:58.107Z,13.00
2018-11-03T13:29:03.961Z,11.88
2018-11-03T13:30:12.487Z,10.45
2018-11-03T13:31:17.550Z,11.60
2018-11-03T13:32:22.926Z,14.03
2018-11-03T13:33:31.441Z,20.57
2018-11-03T13:34:37.017Z,20.68
2018-11-03T13:35:42.882Z,11.70
2018-11-03T13:36:48.141Z,13.80
2018-11-03T13:37:55.572Z,10.93
2018-11-03T13:39:02.205Z,10.23
2018-11-03T13:40:10.405Z,8.88
2018-11-03T13:41:16.021Z,9.70
2018-11-03T13:42:23.376Z,8.45
2018-11-03T13:43:28.360Z,9.58
2018-11-03T13:44:33.948Z,8.90
2018-11-03T13:45:42.308Z,9.88
2018-11-03T13:46:48.824Z,9.10
2018-11-03T13:47:53.765Z,10.15
2018-11-03T13:48:58.907Z,9.90
2018-11-03T13:50:07.162Z,9.43
2018-11-03T13:51:14.808Z,10.00
2018-11-03T13:52:20.741Z,10.63
2018-11-03T13:53:26.103Z,9.85
2018-11-03T13:54:31.622Z,10.58
2018-11-03T13:55:37.804Z,8.35
2018-11-03T13:56:43.265Z,10.95
2018-11-03T13:57:53.113Z,10.70
2018-11-03T13:58:58.475Z,10.25
2018-11-03T14:00:04.324Z,11.20
2018-11-03T14:01:09.438Z,8.65
2018-11-03T14:02:15.944Z,13.18
2018-11-03T14:03:25.328Z,9.60
2018-11-03T14:04:31.333Z,9.18
2018-11-03T14:05:42.590Z,8.70
2018-11-03T14:06:50.420Z,10.63
2018-11-03T14:07:55.954Z,9.50
2018-11-03T14:09:02.827Z,13.88
2018-11-03T14:10:11.188Z,13.95
2018-11-03T14:11:16.469Z,10.53
2018-11-03T14:12:22.283Z,10.20